Time;durP1;ratioP1;P1;durP2;ratioP2;P2;SDS_P1;SDS_P2;PMS_P1;PMS_P2;Temp;Humidity;BMP_temperature;BMP_pressure;BME280_temperature;BME280_humidity;BME280_pressure;Samples;Min_cycle;Max_cycle;Signal;HPM_P1;HPM_P2
2022/06/02 00:01:21;;;;;;;4.18;1.40;;;;;;;10.45;100.00;100804.03;5210893;28;20509;-73
2022/06/02 00:04:36;;;;;;;2.00;1.45;;;;;;;10.43;100.00;100799.75;5209929;28;20501;-73
2022/06/02 00:07:13;;;;;;;6.78;1.63;;;;;;;10.46;100.00;100808.34;5147041;28;20033;-72
2022/06/02 00:10:12;;;;;;;2.53;1.30;;;;;;;10.46;100.00;100810.09;5146080;28;20093;-72
2022/06/02 00:12:55;;;;;;;2.25;1.40;;;;;;;10.43;100.00;100813.69;5187113;28;20026;-73
2022/06/02 00:15:38;;;;;;;3.50;1.33;;;;;;;10.41;100.00;100819.84;5211732;28;20043;-73
2022/06/02 00:18:12;;;;;;;2.15;1.30;;;;;;;10.33;100.00;100821.84;5206030;28;20030;-73
2022/06/02 00:21:16;;;;;;;1.40;1.10;;;;;;;10.30;100.00;100825.41;5192667;28;20568;-72
2022/06/02 00:23:57;;;;;;;3.90;1.40;;;;;;;10.33;100.00;100827.06;5209031;28;20033;-73
2022/06/02 00:26:51;;;;;;;1.83;1.30;;;;;;;10.32;100.00;100838.44;5208323;28;20534;-72
2022/06/02 00:29:55;;;;;;;3.33;1.40;;;;;;;10.27;100.00;100849.00;5209812;28;20292;-72
2022/06/02 00:32:45;;;;;;;1.90;1.33;;;;;;;10.30;100.00;100843.69;5210923;28;20029;-73
2022/06/02 00:35:21;;;;;;;3.22;1.40;;;;;;;10.20;100.00;100851.84;5189386;28;20056;-73
2022/06/02 00:38:13;;;;;;;3.58;1.52;;;;;;;10.05;100.00;100857.50;5210723;28;20421;-73
2022/06/02 00:40:45;;;;;;;2.45;1.38;;;;;;;9.96;100.00;100866.44;5207855;28;20034;-73
2022/06/02 00:43:30;;;;;;;3.33;1.40;;;;;;;10.01;100.00;100861.97;5209598;28;20115;-74
2022/06/02 00:46:46;;;;;;;2.90;1.58;;;;;;;10.03;100.00;100868.00;5203521;28;20037;-73
2022/06/02 00:49:25;;;;;;;2.03;1.38;;;;;;;9.99;100.00;100873.34;5206495;28;20538;-73
2022/06/02 00:52:13;;;;;;;2.65;1.45;;;;;;;9.98;100.00;100880.28;5198901;28;20029;-72
2022/06/02 00:58:16;;;;;;;3.17;1.60;;;;;;;9.93;100.00;100879.59;5209451;28;20170;-73
2022/06/02 01:00:51;;;;;;;3.53;1.42;;;;;;;9.91;100.00;100883.13;5213947;28;20032;-73
2022/06/02 01:03:24;;;;;;;2.78;1.85;;;;;;;9.93;100.00;100890.03;5213607;28;20225;-72
2022/06/02 01:06:13;;;;;;;2.58;1.80;;;;;;;9.91;100.00;100901.41;5215349;28;20039;-73
2022/06/02 01:09:19;;;;;;;2.92;1.90;;;;;;;9.83;100.00;100893.78;5211506;28;20033;-72
2022/06/02 01:12:00;;;;;;;5.37;1.90;;;;;;;9.82;100.00;100906.88;5213841;28;20052;-73
2022/06/02 01:15:07;;;;;;;2.70;2.20;;;;;;;9.77;100.00;100898.28;5210228;28;20790;-73
2022/06/02 01:17:51;;;;;;;2.80;1.98;;;;;;;9.89;100.00;100908.41;5209460;28;20033;-73
2022/06/02 01:20:38;;;;;;;3.85;2.05;;;;;;;9.86;100.00;100904.13;5212693;28;20033;-73
2022/06/02 01:23:42;;;;;;;3.28;2.10;;;;;;;9.73;100.00;100907.13;5209426;28;20029;-74
2022/06/02 01:26:28;;;;;;;3.72;2.10;;;;;;;9.75;100.00;100905.31;5210787;28;20029;-72
2022/06/02 01:29:12;;;;;;;3.40;2.37;;;;;;;9.78;100.00;100910.44;5211254;28;20501;-73
2022/06/02 01:32:01;;;;;;;3.55;2.45;;;;;;;9.80;100.00;100914.75;5192817;28;20026;-73
2022/06/02 01:35:02;;;;;;;4.75;2.47;;;;;;;9.74;100.00;100914.91;5207450;28;20498;-72
2022/06/02 01:37:39;;;;;;;3.60;2.58;;;;;;;9.80;100.00;100916.50;5209863;28;20385;-72
2022/06/02 01:40:31;;;;;;;4.47;2.58;;;;;;;9.69;100.00;100913.31;5213959;28;20462;-72
2022/06/02 01:43:15;;;;;;;3.97;2.60;;;;;;;9.71;100.00;100919.34;5201982;28;20380;-73
2022/06/02 01:46:11;;;;;;;3.38;2.70;;;;;;;9.68;100.00;100925.50;5212643;28;20027;-72
2022/06/02 01:49:10;;;;;;;4.25;2.72;;;;;;;9.69;100.00;100916.78;5209864;28;20034;-72
2022/06/02 01:52:06;;;;;;;7.30;2.60;;;;;;;9.77;100.00;100914.84;5210345;28;20025;-72
2022/06/02 01:54:50;;;;;;;5.93;3.00;;;;;;;9.75;100.00;100914.03;5208298;28;20049;-72
2022/06/02 01:57:55;;;;;;;4.30;3.08;;;;;;;9.67;100.00;100923.78;5211852;28;20116;-72
2022/06/02 02:00:31;;;;;;;3.53;2.83;;;;;;;9.64;100.00;100923.03;5213112;28;20029;-73
2022/06/02 02:03:31;;;;;;;4.65;3.15;;;;;;;9.70;100.00;100923.75;5206970;28;20478;-73
2022/06/02 02:06:18;;;;;;;4.50;3.20;;;;;;;9.61;100.00;100936.13;5203097;23;20041;-71
2022/06/02 02:09:36;;;;;;;3.95;3.03;;;;;;;9.65;100.00;100935.19;5200382;28;20080;-71
2022/06/02 02:12:23;;;;;;;4.35;3.15;;;;;;;9.64;100.00;100936.91;5196993;28;20120;-71
2022/06/02 02:15:01;;;;;;;5.20;3.00;;;;;;;9.47;100.00;100930.44;5202199;28;20029;-71
2022/06/02 02:17:48;;;;;;;3.45;2.67;;;;;;;9.45;100.00;100937.47;5176740;28;20036;-71
2022/06/02 02:20:31;;;;;;;3.35;2.50;;;;;;;9.27;100.00;100937.88;5163922;28;20037;-72
2022/06/02 02:23:15;;;;;;;6.10;2.50;;;;;;;9.05;100.00;100941.06;5178790;28;20030;-71
2022/06/02 02:25:53;;;;;;;3.90;2.75;;;;;;;9.20;100.00;100947.63;5181201;28;20380;-71
2022/06/02 02:28:54;;;;;;;3.20;2.42;;;;;;;8.97;100.00;100937.75;5181384;28;20495;-71
2022/06/02 02:31:25;;;;;;;4.65;2.30;;;;;;;8.86;100.00;100945.84;5180206;28;20552;-72
2022/06/02 02:34:23;;;;;;;2.75;2.30;;;;;;;8.63;100.00;100955.91;5181879;28;20034;-71
2022/06/02 02:37:15;;;;;;;5.68;2.33;;;;;;;8.49;100.00;100957.94;5181021;28;20026;-71
2022/06/02 02:39:59;;;;;;;3.45;2.35;;;;;;;8.33;100.00;100964.38;5163761;28;20418;-71
2022/06/02 02:42:31;;;;;;;3.50;2.58;;;;;;;8.30;100.00;100960.94;5180461;28;20037;-71
2022/06/02 02:45:15;;;;;;;3.70;2.70;;;;;;;8.26;100.00;100959.31;5177242;28;20026;-71
2022/06/02 02:47:59;;;;;;;3.95;2.97;;;;;;;8.10;100.00;100961.34;5180645;28;20033;-71
2022/06/02 02:50:37;;;;;;;3.80;3.20;;;;;;;8.06;100.00;100958.81;5176560;28;20510;-71
2022/06/02 02:53:31;;;;;;;5.00;2.97;;;;;;;8.21;100.00;100956.78;5180343;28;20041;-71
2022/06/02 02:56:13;;;;;;;3.90;2.72;;;;;;;8.40;100.00;100970.31;5177313;28;20168;-71
2022/06/02 02:58:49;;;;;;;3.80;2.95;;;;;;;8.52;100.00;100970.91;5180870;28;20111;-71
2022/06/02 03:01:38;;;;;;;3.90;2.90;;;;;;;8.55;100.00;100963.03;5180383;28;20506;-71
2022/06/02 03:04:10;;;;;;;4.85;2.88;;;;;;;8.33;100.00;100972.19;5180641;28;20033;-72
2022/06/02 03:06:42;;;;;;;5.57;2.65;;;;;;;8.30;100.00;100974.84;5180192;28;20563;-71
2022/06/02 03:09:18;;;;;;;4.65;3.08;;;;;;;8.45;100.00;100979.75;5180753;28;20426;-71
2022/06/02 03:12:08;;;;;;;3.80;2.95;;;;;;;8.35;100.00;100978.22;5180470;28;20118;-72
2022/06/02 03:15:09;;;;;;;4.57;2.80;;;;;;;8.44;100.00;100992.78;5180122;28;20030;-71
2022/06/02 03:18:04;;;;;;;3.80;2.72;;;;;;;8.27;100.00;101000.94;5177132;28;20068;-71
2022/06/02 03:20:46;;;;;;;4.25;3.05;;;;;;;8.41;100.00;100987.66;5177247;28;20527;-71
2022/06/02 03:23:36;;;;;;;4.78;3.08;;;;;;;8.18;100.00;101000.28;5180708;28;20030;-71
2022/06/02 03:26:23;;;;;;;3.90;2.83;;;;;;;8.42;100.00;100995.41;5177091;28;20041;-71
2022/06/02 03:29:16;;;;;;;3.92;3.00;;;;;;;8.30;100.00;100995.69;5180455;28;20479;-71
2022/06/02 03:32:10;;;;;;;4.75;3.08;;;;;;;8.06;100.00;101006.50;5180452;28;20479;-71
2022/06/02 03:34:50;;;;;;;4.53;3.30;;;;;;;8.08;100.00;101009.09;5177604;28;20022;-71
2022/06/02 03:37:43;;;;;;;4.18;3.13;;;;;;;8.31;100.00;101007.81;5179863;28;20060;-71
2022/06/02 03:40:29;;;;;;;4.47;3.58;;;;;;;8.36;100.00;101007.72;5180230;28;20018;-71
2022/06/02 03:43:14;;;;;;;4.45;3.50;;;;;;;8.36;100.00;101005.97;5176053;28;20107;-71
2022/06/02 03:46:13;;;;;;;4.45;3.10;;;;;;;8.56;100.00;101003.81;5180383;28;20021;-71
2022/06/02 03:48:59;;;;;;;5.82;3.20;;;;;;;8.43;100.00;101002.38;5179327;28;20057;-71
2022/06/02 03:51:42;;;;;;;4.13;2.90;;;;;;;8.66;100.00;101017.50;5179389;28;20558;-71
2022/06/02 03:54:38;;;;;;;4.63;3.10;;;;;;;8.64;100.00;101017.56;5179337;28;20079;-71
2022/06/02 03:57:27;;;;;;;8.23;4.78;;;;;;;8.69;100.00;101013.09;5156392;28;20303;-71
2022/06/02 04:00:24;;;;;;;4.88;3.72;;;;;;;8.73;100.00;101014.75;5180114;28;20139;-71
2022/06/02 04:03:02;;;;;;;4.50;3.55;;;;;;;8.61;100.00;101016.75;5179555;28;20029;-71
2022/06/02 04:05:35;;;;;;;4.68;3.42;;;;;;;8.58;100.00;101022.88;5177663;28;20075;-71
2022/06/02 04:08:05;;;;;;;5.03;3.65;;;;;;;8.46;100.00;101027.47;5179451;28;20029;-71
2022/06/02 04:10:59;;;;;;;6.68;3.25;;;;;;;8.64;100.00;101035.78;5179437;28;20030;-71
2022/06/02 04:13:57;;;;;;;4.38;3.30;;;;;;;8.62;100.00;101045.38;5148581;28;20050;-71
2022/06/02 04:17:05;;;;;;;6.03;3.08;;;;;;;8.73;100.00;101038.19;5177860;28;20079;-71
2022/06/02 04:23:06;;;;;;;4.82;3.33;;;;;;;9.05;100.00;101056.63;5176545;28;20099;-71
2022/06/02 04:25:48;;;;;;;8.25;3.67;;;;;;;9.54;100.00;101052.00;5174511;28;20018;-71
2022/06/02 04:28:42;;;;;;;8.02;3.50;;;;;;;9.73;100.00;101058.50;5159147;28;20492;-71
2022/06/02 04:31:44;;;;;;;5.18;3.10;;;;;;;9.91;100.00;101060.66;5179419;28;20399;-71
2022/06/02 04:34:23;;;;;;;5.15;3.50;;;;;;;10.13;100.00;101064.47;5177376;28;20062;-71
2022/06/02 04:37:41;;;;;;;5.53;3.65;;;;;;;9.76;100.00;101074.94;5178561;28;20022;-71
2022/06/02 04:40:36;;;;;;;6.22;4.57;;;;;;;9.88;100.00;101079.00;5132311;28;20661;-71
2022/06/02 04:43:25;;;;;;;9.25;5.32;;;;;;;9.77;100.00;101081.88;5175995;28;20459;-71
2022/06/02 04:46:14;;;;;;;6.85;4.72;;;;;;;9.66;100.00;101077.81;5179271;28;20140;-72
2022/06/02 04:48:50;;;;;;;6.95;4.97;;;;;;;10.68;100.00;101083.00;5179380;28;20030;-71
2022/06/02 04:51:33;;;;;;;5.50;4.50;;;;;;;11.44;100.00;101078.91;5179016;28;20076;-71
2022/06/02 04:54:13;;;;;;;5.72;4.28;;;;;;;10.95;100.00;101084.81;5179479;28;20491;-71
2022/06/02 04:57:09;;;;;;;6.05;4.32;;;;;;;11.90;100.00;101081.84;5162263;28;20092;-71
2022/06/02 05:00:00;;;;;;;6.63;4.15;;;;;;;12.86;97.13;101088.94;5178930;28;20344;-72
2022/06/02 05:02:56;;;;;;;6.40;3.88;;;;;;;13.44;92.67;101089.28;5175398;28;20030;-72
2022/06/02 05:05:44;;;;;;;6.80;4.07;;;;;;;12.05;98.55;101094.44;5178641;28;20045;-71
2022/06/02 05:08:30;;;;;;;6.55;4.18;;;;;;;11.36;100.00;101098.38;5176068;28;20087;-71
2022/06/02 05:11:20;;;;;;;6.47;4.43;;;;;;;13.69;94.92;101094.44;5178848;28;20340;-71
2022/06/02 05:14:43;;;;;;;8.07;4.85;;;;;;;14.82;87.26;101083.47;5179267;28;20033;-72
2022/06/02 05:17:49;;;;;;;4.57;3.63;;;;;;;16.20;79.68;101084.69;5163241;28;20044;-72
2022/06/02 05:20:42;;;;;;;4.47;3.15;;;;;;;18.62;72.80;101084.25;5177444;28;20103;-72
2022/06/02 05:23:50;;;;;;;6.30;4.25;;;;;;;19.67;65.79;101083.75;5158089;28;20050;-72
2022/06/02 05:26:57;;;;;;;7.45;4.60;;;;;;;20.02;67.02;101090.28;5176986;28;20539;-72
2022/06/02 05:29:57;;;;;;;6.28;4.57;;;;;;;20.80;65.84;101088.41;5177493;28;20442;-72
2022/06/02 05:32:54;;;;;;;6.18;4.45;;;;;;;21.77;61.40;101085.78;5178328;28;20109;-72
2022/06/02 05:35:54;;;;;;;4.68;3.92;;;;;;;21.92;60.27;101095.31;5178756;28;20026;-72
2022/06/02 05:38:56;;;;;;;6.05;4.80;;;;;;;20.56;63.44;101102.53;5179129;28;20030;-72
2022/06/02 05:41:58;;;;;;;7.32;5.28;;;;;;;19.37;66.13;101106.94;5181719;28;20040;-72
2022/06/02 05:44:34;;;;;;;7.57;5.70;;;;;;;16.66;76.91;101134.22;5181649;28;20022;-72
2022/06/02 05:47:18;;;;;;;8.07;6.70;;;;;;;16.19;79.43;101133.94;5177850;28;20447;-72
2022/06/02 05:50:01;;;;;;;9.05;6.55;;;;;;;15.46;82.42;101130.50;5181911;28;20293;-72
2022/06/02 05:52:50;;;;;;;7.80;6.68;;;;;;;15.41;84.20;101132.50;5178378;28;20038;-72
2022/06/02 05:55:37;;;;;;;12.27;7.07;;;;;;;15.64;82.68;101134.91;5182015;28;20033;-72
2022/06/02 05:58:40;;;;;;;10.43;7.57;;;;;;;15.32;83.87;101137.34;5177738;28;20045;-71
2022/06/02 06:01:43;;;;;;;9.85;7.18;;;;;;;15.80;85.34;101141.16;5177350;28;20053;-72
2022/06/02 06:04:35;;;;;;;9.20;7.50;;;;;;;15.71;83.07;101138.94;5177879;28;20493;-72
2022/06/02 06:07:13;;;;;;;9.90;7.15;;;;;;;15.41;85.17;101150.94;5177272;28;20112;-72
2022/06/02 06:10:04;;;;;;;10.00;7.10;;;;;;;15.53;86.07;101141.63;5181416;28;20121;-72
2022/06/02 06:12:54;;;;;;;11.18;7.22;;;;;;;15.74;84.07;101148.50;5180496;28;20046;-72
2022/06/02 06:15:56;;;;;;;9.88;7.13;;;;;;;16.21;81.58;101150.53;5181887;28;20518;-72
2022/06/02 06:18:45;;;;;;;8.20;7.00;;;;;;;16.64;82.02;101151.91;5176640;28;20095;-72
2022/06/02 06:21:46;;;;;;;8.70;6.95;;;;;;;16.33;84.01;101147.31;5179818;28;20032;-72
2022/06/02 06:24:22;;;;;;;10.48;7.68;;;;;;;15.92;84.17;101148.50;5179635;28;20022;-72
2022/06/02 06:27:25;;;;;;;10.13;7.07;;;;;;;16.63;83.96;101147.56;5181513;28;20041;-72
2022/06/02 06:30:26;;;;;;;9.50;7.32;;;;;;;16.48;81.95;101140.44;5180995;28;20021;-72
2022/06/02 06:33:28;;;;;;;10.70;7.43;;;;;;;16.33;82.04;101155.22;5181952;28;20061;-72
2022/06/02 06:36:11;;;;;;;8.27;6.75;;;;;;;17.28;80.56;101153.78;5181194;28;20395;-72
2022/06/02 06:38:53;;;;;;;8.52;6.40;;;;;;;18.70;75.62;101139.41;5179001;28;20108;-72
2022/06/02 06:41:33;;;;;;;9.82;7.07;;;;;;;18.49;76.58;101149.47;5181575;28;20612;-72
2022/06/02 06:44:14;;;;;;;9.13;6.97;;;;;;;18.13;77.24;101156.00;5178019;28;20383;-72
2022/06/02 06:46:49;;;;;;;9.60;7.40;;;;;;;16.62;79.30;101165.22;5181008;28;20069;-72
2022/06/02 06:49:56;;;;;;;9.82;8.60;;;;;;;17.42;77.52;101164.47;5180780;28;20104;-72
2022/06/02 06:52:54;;;;;;;9.80;8.15;;;;;;;17.88;76.87;101158.34;5180143;28;20040;-72
2022/06/02 06:55:38;;;;;;;11.07;8.40;;;;;;;17.01;78.38;101169.25;5180838;28;20026;-72
2022/06/02 06:58:19;;;;;;;9.60;7.93;;;;;;;16.24;81.92;101166.22;5177546;28;20025;-72
2022/06/02 07:00:59;;;;;;;9.43;7.93;;;;;;;17.56;77.40;101161.94;5181007;28;20473;-72
2022/06/02 07:03:38;;;;;;;8.35;6.28;;;;;;;17.28;76.11;101167.81;5180451;28;20533;-72
2022/06/02 07:06:17;;;;;;;9.00;6.32;;;;;;;17.05;79.43;101175.25;5177153;28;20030;-72
2022/06/02 07:08:58;;;;;;;9.10;5.82;;;;;;;18.31;75.41;101174.38;5179780;28;20034;-71
2022/06/02 07:14:59;;;;;;;10.98;6.88;;;;;;;18.38;73.90;101174.88;5179459;28;20037;-71
2022/06/02 07:17:52;;;;;;;7.45;6.25;;;;;;;18.25;75.32;101176.47;5180491;28;20025;-71
2022/06/02 07:20:31;;;;;;;7.70;5.95;;;;;;;18.44;74.08;101182.47;5169372;28;20092;-71
2022/06/02 07:23:28;;;;;;;6.80;5.45;;;;;;;18.26;75.22;101183.47;5170885;28;20018;-71
2022/06/02 07:26:13;;;;;;;8.63;6.15;;;;;;;18.83;72.97;101173.88;5173702;28;20088;-71
2022/06/02 07:29:02;;;;;;;6.97;5.53;;;;;;;19.89;70.41;101168.97;5179427;28;20041;-71
2022/06/02 07:32:03;;;;;;;6.93;4.90;;;;;;;19.15;70.03;101183.41;5176246;28;20055;-71
2022/06/02 07:35:04;;;;;;;7.75;5.38;;;;;;;19.26;70.76;101188.91;5177528;28;20026;-72
2022/06/02 07:37:47;;;;;;;6.65;5.53;;;;;;;17.94;72.72;101200.31;5175654;28;20030;-71
2022/06/02 07:40:24;;;;;;;8.98;6.13;;;;;;;17.55;77.38;101202.50;5175222;28;20502;-71
2022/06/02 07:43:05;;;;;;;8.10;5.90;;;;;;;16.75;80.52;101203.22;5174188;28;20285;-71
2022/06/02 07:46:12;;;;;;;8.05;6.93;;;;;;;16.91;80.73;101198.88;5177099;28;20108;-71
2022/06/02 07:48:52;;;;;;;8.43;6.80;;;;;;;16.68;81.36;101201.84;5177598;28;20037;-71
2022/06/02 07:51:41;;;;;;;9.63;7.00;;;;;;;16.34;80.93;101196.50;5180091;28;20091;-71
2022/06/02 07:54:31;;;;;;;9.45;7.80;;;;;;;17.56;78.81;101199.81;5180185;28;20037;-71
2022/06/02 07:57:35;;;;;;;12.50;7.50;;;;;;;18.97;73.73;101181.84;5175917;28;20032;-71
2022/06/02 08:00:15;;;;;;;8.27;6.18;;;;;;;19.52;70.80;101174.03;5176349;28;20088;-71
2022/06/02 08:03:15;;;;;;;8.00;5.97;;;;;;;21.32;69.15;101170.69;5178762;28;20030;-71
2022/06/02 08:06:13;;;;;;;7.72;5.18;;;;;;;20.35;69.17;101175.69;5172239;28;20049;-72
2022/06/02 08:08:58;;;;;;;7.30;6.00;;;;;;;21.48;64.85;101179.31;5177283;28;20049;-72
2022/06/02 08:11:57;;;;;;;4.37;3.97;;;;;;;20.58;64.87;101177.63;5179647;28;20030;-72
2022/06/02 08:14:34;;;;;;;6.40;5.28;;;;;;;21.17;66.39;101177.09;5150756;28;20052;-72
2022/06/02 08:17:23;;;;;;;7.30;5.75;;;;;;;20.75;66.94;101177.34;5157866;28;20025;-71
2022/06/02 08:20:05;;;;;;;8.23;5.88;;;;;;;21.65;65.41;101171.88;5179807;28;20026;-72
2022/06/02 08:23:01;;;;;;;6.07;5.47;;;;;;;21.53;65.31;101177.16;5179270;28;20064;-72
2022/06/02 08:25:57;;;;;;;5.78;5.18;;;;;;;21.65;65.23;101182.50;5167757;28;20076;-72
2022/06/02 08:28:49;;;;;;;6.13;4.72;;;;;;;22.67;60.39;101182.00;5179025;28;20116;-72
2022/06/02 08:31:37;;;;;;;4.18;3.78;;;;;;;23.49;61.01;101181.69;5179534;28;20026;-72
2022/06/02 08:35:04;;;;;;;4.35;3.58;;;;;;;23.01;61.21;101180.16;5171510;28;20029;-72
2022/06/02 08:38:00;;;;;;;5.95;4.85;;;;;;;24.11;59.80;101180.22;5155321;28;20119;-72
2022/06/02 08:40:51;;;;;;;5.70;3.83;;;;;;;25.85;57.56;101168.59;5174987;28;20037;-72
2022/06/02 08:43:33;;;;;;;5.80;4.03;;;;;;;24.59;55.49;101175.31;5160946;28;20507;-72
2022/06/02 08:46:40;;;;;;;6.32;4.45;;;;;;;22.73;59.30;101199.25;5175452;28;20483;-72
2022/06/02 08:49:40;;;;;;;5.82;4.72;;;;;;;23.65;57.94;101197.34;5176066;28;20479;-71
2022/06/02 08:52:39;;;;;;;5.65;4.20;;;;;;;20.55;65.27;101216.81;5176985;28;20037;-71
2022/06/02 08:55:26;;;;;;;6.60;4.35;;;;;;;19.51;67.34;101214.75;5176008;28;20086;-71
2022/06/02 08:58:12;;;;;;;6.90;3.97;;;;;;;19.33;68.14;101224.72;5178612;28;20030;-71
2022/06/02 09:00:56;;;;;;;5.72;4.50;;;;;;;20.06;66.94;101216.53;5178300;28;20503;-71
2022/06/02 09:04:08;;;;;;;6.30;4.15;;;;;;;21.16;63.46;101216.13;5178780;28;20120;-71
2022/06/02 09:06:57;;;;;;;6.10;4.32;;;;;;;21.11;63.45;101212.09;5177514;28;20096;-71
2022/06/02 09:09:45;;;;;;;6.95;4.30;;;;;;;19.00;67.13;101224.06;5177857;28;20491;-71
2022/06/02 09:12:48;;;;;;;4.57;3.50;;;;;;;19.62;65.37;101217.63;5179193;28;20399;-71
2022/06/02 09:15:41;;;;;;;5.65;3.53;;;;;;;20.83;62.28;101215.78;5181231;28;20034;-71
2022/06/02 09:18:15;;;;;;;4.55;3.33;;;;;;;21.95;62.13;101216.72;5182643;28;20018;-71
2022/06/02 09:21:21;;;;;;;4.78;2.80;;;;;;;21.12;63.28;101217.31;5182659;28;20052;-71
2022/06/02 09:24:21;;;;;;;4.97;2.95;;;;;;;22.10;59.65;101220.94;5180501;28;20041;-71
2022/06/02 09:27:36;;;;;;;4.03;3.17;;;;;;;22.64;57.60;101211.56;5181404;28;20029;-71
2022/06/02 09:30:12;;;;;;;3.90;2.47;;;;;;;24.14;56.36;101208.47;5182747;28;20022;-71
2022/06/02 09:33:37;;;;;;;4.18;2.85;;;;;;;23.42;59.20;101214.31;5182975;28;20427;-71
2022/06/02 09:36:10;;;;;;;3.50;2.50;;;;;;;22.41;58.62;101220.44;5178994;28;20026;-71
2022/06/02 09:38:59;;;;;;;2.78;2.13;;;;;;;23.59;56.78;101214.72;5179298;28;20052;-72
2022/06/02 09:42:01;;;;;;;3.70;2.10;;;;;;;25.47;52.72;101221.97;5164582;28;21478;-72
2022/06/02 09:44:57;;;;;;;3.05;2.20;;;;;;;23.14;56.15;101223.63;5181007;28;20033;-72
2022/06/02 09:48:06;;;;;;;2.53;2.13;;;;;;;20.69;59.83;101230.91;5181571;28;20084;-72
2022/06/02 09:51:10;;;;;;;2.80;2.33;;;;;;;21.33;61.19;101239.75;5178726;28;20022;-72
2022/06/02 09:54:11;;;;;;;3.67;2.28;;;;;;;22.16;58.93;101228.47;5179376;28;20463;-71
2022/06/02 10:00:46;;;;;;;2.97;1.90;;;;;;;22.68;58.49;101235.22;5178748;28;20472;-71
2022/06/02 10:03:44;;;;;;;3.63;2.33;;;;;;;21.95;57.84;101232.69;5179376;28;20039;-71
2022/06/02 10:06:33;;;;;;;3.03;1.90;;;;;;;20.78;61.47;101235.59;5161086;28;20494;-71
2022/06/02 10:09:28;;;;;;;2.80;2.00;;;;;;;21.53;60.02;101244.53;5178133;28;20140;-71
2022/06/02 10:15:40;;;;;;;4.38;2.50;;;;;;;21.02;61.53;101244.59;5181969;28;20029;-71
2022/06/02 10:18:48;;;;;;;3.35;1.90;;;;;;;20.71;62.42;101250.25;5175861;28;20033;-71
2022/06/02 10:21:38;;;;;;;3.17;2.50;;;;;;;20.36;62.17;101248.22;5180756;28;20398;-71
2022/06/02 10:24:32;;;;;;;4.28;2.30;;;;;;;20.15;64.30;101246.94;5177986;28;20026;-71
2022/06/02 10:27:21;;;;;;;3.75;2.22;;;;;;;19.63;64.79;101244.03;5178006;28;20503;-71
2022/06/02 10:30:19;;;;;;;5.05;2.33;;;;;;;19.01;64.78;101252.28;5163958;28;20403;-71
2022/06/02 10:33:15;;;;;;;3.55;2.20;;;;;;;19.15;64.97;101249.66;5182231;28;20061;-71
2022/06/02 10:36:06;;;;;;;5.88;2.53;;;;;;;19.30;63.59;101245.25;5178545;28;20021;-71
2022/06/02 10:39:18;;;;;;;4.35;2.38;;;;;;;18.49;66.46;101247.44;5180045;28;20037;-71
2022/06/02 10:42:00;;;;;;;4.88;2.50;;;;;;;18.20;66.57;101245.53;5181790;28;20018;-71
2022/06/02 10:45:03;;;;;;;2.55;1.85;;;;;;;19.34;66.40;101246.75;5179994;28;20044;-71
2022/06/02 10:47:42;;;;;;;4.00;1.83;;;;;;;19.28;64.39;101240.03;5177417;28;20563;-71
2022/06/02 10:50:35;;;;;;;3.20;2.10;;;;;;;19.23;65.41;101242.13;5181080;28;20041;-71
2022/06/02 10:53:11;;;;;;;3.05;2.03;;;;;;;19.19;63.95;101240.59;5178075;28;20109;-71
2022/06/02 10:55:56;;;;;;;2.85;1.60;;;;;;;19.48;63.85;101247.63;5180865;28;20030;-71
2022/06/02 10:58:54;;;;;;;3.92;1.73;;;;;;;19.86;61.11;101242.59;5178662;28;20037;-71
2022/06/02 11:01:42;;;;;;;3.35;2.00;;;;;;;19.89;62.56;101237.97;5178375;28;20038;-71
2022/06/02 11:04:53;;;;;;;3.35;1.60;;;;;;;19.02;64.17;101250.47;5178921;28;20468;-73
2022/06/02 11:08:01;;;;;;;4.82;2.08;;;;;;;18.83;65.17;101253.34;5170588;28;20048;-73
2022/06/02 11:10:59;;;;;;;5.78;2.60;;;;;;;19.28;64.62;101244.50;5176344;28;20060;-73
2022/06/02 11:13:41;;;;;;;4.68;2.13;;;;;;;19.13;65.35;101243.56;5178979;28;20423;-73
2022/06/02 11:16:38;;;;;;;3.40;2.28;;;;;;;18.65;65.79;101244.78;5178798;28;20659;-73
2022/06/02 11:19:33;;;;;;;3.83;2.00;;;;;;;19.01;66.06;101246.97;5177649;28;20057;-72
2022/06/02 11:22:15;;;;;;;3.15;1.70;;;;;;;19.12;63.33;101241.88;5177007;28;20025;-72
2022/06/02 11:25:06;;;;;;;3.00;1.63;;;;;;;19.15;61.75;101238.19;5181215;28;20034;-73
2022/06/02 11:28:25;;;;;;;2.13;1.25;;;;;;;19.84;59.74;101229.44;5172408;28;20029;-72
2022/06/02 11:31:31;;;;;;;4.22;1.60;;;;;;;19.35;58.37;101229.91;5179944;28;20546;-73
2022/06/02 11:34:17;;;;;;;3.05;1.30;;;;;;;19.90;60.69;101228.19;5175094;28;20376;-72
2022/06/02 11:36:59;;;;;;;3.33;1.98;;;;;;;19.29;61.29;101230.28;5179047;28;20390;-71
2022/06/02 11:40:18;;;;;;;2.72;1.73;;;;;;;19.44;64.19;101230.19;5175195;28;20461;-72
2022/06/02 11:42:56;;;;;;;3.67;2.05;;;;;;;19.50;65.25;101228.97;5158333;28;20045;-72
2022/06/02 11:45:35;;;;;;;3.92;2.15;;;;;;;19.87;64.61;101229.25;5179993;28;20034;-72
2022/06/02 11:48:29;;;;;;;2.72;1.40;;;;;;;20.14;61.45;101222.19;5179584;28;20029;-72
2022/06/02 11:51:18;;;;;;;3.00;1.27;;;;;;;20.25;58.99;101226.78;5176283;28;20058;-71
2022/06/02 11:54:06;;;;;;;3.53;1.60;;;;;;;19.83;60.38;101229.53;5180225;28;20037;-71
2022/06/02 11:57:01;;;;;;;2.25;1.20;;;;;;;19.26;60.54;101226.03;5179434;28;20398;-71
2022/06/02 12:00:08;;;;;;;3.30;0.93;;;;;;;19.13;61.08;101230.31;5175780;28;20061;-72
2022/06/02 12:03:00;;;;;;;2.00;1.13;;;;;;;19.49;62.65;101217.53;5175696;28;20057;-71
2022/06/02 12:05:52;;;;;;;1.75;1.00;;;;;;;19.61;63.17;101230.00;5179268;28;20030;-72
2022/06/02 12:08:34;;;;;;;3.10;1.60;;;;;;;19.82;61.38;101220.69;5175730;28;20395;-72
2022/06/02 12:11:08;;;;;;;2.67;1.48;;;;;;;19.67;62.50;101221.69;5174152;28;20113;-72
2022/06/02 12:14:03;;;;;;;2.58;1.48;;;;;;;19.67;63.13;101227.00;5176958;28;20061;-72
2022/06/02 12:16:46;;;;;;;2.88;1.70;;;;;;;19.74;61.97;101233.59;5174751;28;20047;-71
2022/06/02 12:19:32;;;;;;;2.90;1.55;;;;;;;20.14;60.66;101227.50;5179820;28;20112;-71
2022/06/02 12:22:26;;;;;;;;;;;;;;;20.02;61.39;101223.00;5176995;28;20037;-71
2022/06/02 12:25:09;;;;;;;2.65;1.23;;;;;;;19.95;62.77;101223.44;5179294;28;20323;-72
2022/06/02 12:28:18;;;;;;;2.38;1.20;;;;;;;19.49;59.83;101230.78;5179074;28;20038;-72
2022/06/02 12:31:26;;;;;;;2.47;1.13;;;;;;;19.52;60.94;101233.25;5175551;28;20033;-72
2022/06/02 12:34:28;;;;;;;2.92;1.13;;;;;;;19.61;61.40;101232.66;5178677;28;20060;-72
2022/06/02 12:37:10;;;;;;;2.08;1.33;;;;;;;19.39;61.55;101229.63;5177367;28;20036;-71
2022/06/02 12:40:18;;;;;;;4.40;1.65;;;;;;;19.46;62.35;101241.56;5176373;28;20057;-71
2022/06/02 12:43:30;;;;;;;3.25;1.30;;;;;;;20.01;63.20;101228.34;5176425;28;20027;-72
2022/06/02 12:46:35;;;;;;;2.20;1.00;;;;;;;19.91;59.83;101229.88;5173865;28;20022;-72
2022/06/02 12:49:14;;;;;;;3.08;0.85;;;;;;;20.07;59.82;101228.84;5170794;28;20466;-72
2022/06/02 12:52:06;;;;;;;2.45;1.00;;;;;;;20.09;61.30;101229.59;5176402;28;20040;-72
2022/06/02 12:55:04;;;;;;;2.20;0.93;;;;;;;19.82;61.42;101226.00;5178124;28;20399;-72
2022/06/02 12:58:11;;;;;;;2.65;1.00;;;;;;;19.60;62.41;101230.97;5178479;28;20041;-71
2022/06/02 13:00:47;;;;;;;2.78;1.17;;;;;;;19.47;62.27;101235.31;5175655;28;20030;-72
2022/06/02 13:03:32;;;;;;;2.92;1.30;;;;;;;19.66;62.97;101232.38;5160074;28;20026;-72
2022/06/02 13:06:39;;;;;;;2.30;1.15;;;;;;;19.83;62.28;101222.44;5173720;28;20576;-72
2022/06/02 13:09:34;;;;;;;2.80;1.13;;;;;;;20.02;62.58;101233.63;5176211;28;20034;-72
2022/06/02 13:12:32;;;;;;;1.90;1.10;;;;;;;19.85;61.34;101233.78;5174964;28;20030;-72
2022/06/02 13:15:30;;;;;;;4.28;1.15;;;;;;;19.61;61.37;101229.16;5173941;28;20030;-72
2022/06/02 13:18:38;;;;;;;1.95;1.10;;;;;;;19.55;62.15;101238.34;5178595;28;20061;-72
2022/06/02 13:21:32;;;;;;;3.92;1.10;;;;;;;19.17;63.53;101231.03;5176318;28;20026;-72
2022/06/02 13:24:20;;;;;;;2.85;1.20;;;;;;;19.35;62.49;101233.44;5179283;28;20040;-72
2022/06/02 13:27:03;;;;;;;2.65;1.30;;;;;;;19.32;61.25;101238.94;5178402;28;20415;-72
2022/06/02 13:29:54;;;;;;;1.73;1.10;;;;;;;19.60;60.98;101236.25;5177964;28;20034;-72
2022/06/02 13:32:34;;;;;;;2.10;1.00;;;;;;;19.95;62.50;101232.25;5178690;28;20030;-72